createdAt,value
2017-01-08T00:00:15.491Z,98.57
2017-01-08T00:00:56.071Z,98.43
2017-01-08T00:01:36.698Z,98.47
2017-01-08T00:02:17.331Z,98.52
2017-01-08T00:02:58.015Z,98.38
2017-01-08T00:03:38.673Z,98.43
2017-01-08T00:04:19.298Z,98.52
2017-01-08T00:04:59.861Z,98.71
2017-01-08T00:05:40.562Z,98.71
2017-01-08T00:06:21.193Z,98.43
2017-01-08T00:07:01.838Z,98.47
2017-01-08T00:07:42.482Z,98.71
2017-01-08T00:08:23.123Z,98.62
2017-01-08T00:09:03.788Z,98.52
2017-01-08T00:09:44.430Z,98.43
2017-01-08T00:10:25.023Z,98.71
2017-01-08T00:11:05.628Z,98.71
2017-01-08T00:11:46.182Z,98.71
2017-01-08T00:12:26.988Z,98.66
2017-01-08T00:13:07.636Z,98.71
2017-01-08T00:13:48.256Z,98.62
2017-01-08T00:14:28.817Z,98.71
2017-01-08T00:15:09.554Z,98.71
2017-01-08T00:15:50.198Z,98.52
2017-01-08T00:16:30.898Z,98.33
2017-01-08T00:17:12.545Z,98.52
2017-01-08T00:17:53.226Z,98.33
2017-01-08T00:18:33.849Z,98.62
2017-01-08T00:19:14.517Z,98.52
2017-01-08T00:19:55.150Z,98.47
2017-01-08T00:20:35.890Z,98.28
2017-01-08T00:21:16.446Z,98.24
2017-01-08T00:21:57.125Z,98.43
2017-01-08T00:22:37.746Z,98.43
2017-01-08T00:23:18.325Z,98.14
2017-01-08T00:23:58.975Z,98.43
2017-01-08T00:24:40.630Z,98.14
2017-01-08T00:25:21.183Z,98.81
2017-01-08T00:26:01.871Z,98.43
2017-01-08T00:26:42.590Z,98.62
2017-01-08T00:27:23.159Z,98.71
2017-01-08T00:28:03.816Z,98.24
2017-01-08T00:28:44.982Z,98.62
2017-01-08T00:29:25.582Z,98.33
2017-01-08T00:30:06.205Z,98.62
2017-01-08T00:30:46.861Z,98.81
2017-01-08T00:31:27.488Z,98.81
2017-01-08T00:32:08.061Z,98.33
2017-01-08T00:32:48.684Z,98.9
2017-01-08T00:33:29.329Z,98.62
2017-01-08T00:34:09.976Z,98.71
2017-01-08T00:34:50.533Z,98.81
2017-01-08T00:35:31.316Z,98.81
2017-01-08T00:36:11.993Z,98.9
2017-01-08T00:36:52.578Z,98.71
2017-01-08T00:37:33.203Z,98.9
2017-01-08T00:38:13.960Z,99
2017-01-08T00:38:54.610Z,98.81
2017-01-08T00:39:35.207Z,98.81
2017-01-08T00:40:15.855Z,98.81
2017-01-08T00:40:56.558Z,98.9
2017-01-08T00:41:37.350Z,98.9
2017-01-08T00:42:18.066Z,99
2017-01-08T00:42:58.693Z,98.9
2017-01-08T00:43:39.343Z,98.9
2017-01-08T00:44:19.999Z,99
2017-01-08T00:45:00.649Z,98.81
2017-01-08T00:45:41.303Z,99.19
2017-01-08T00:46:21.954Z,99.19
2017-01-08T00:47:02.626Z,98.81
2017-01-08T00:47:44.296Z,99.09
2017-01-08T00:48:24.937Z,98.9
2017-01-08T00:49:05.592Z,99.19
2017-01-08T00:49:46.243Z,99
2017-01-08T00:50:26.905Z,99.09
2017-01-08T00:51:07.551Z,99
2017-01-08T00:51:48.209Z,99
2017-01-08T00:52:29.077Z,99
2017-01-08T00:53:09.737Z,99
2017-01-08T00:53:50.357Z,99
2017-01-08T00:54:31.058Z,98.9
2017-01-08T00:55:11.724Z,99
2017-01-08T00:55:54.401Z,99
2017-01-08T00:56:35.002Z,99
2017-01-08T00:57:15.571Z,98.9
2017-01-08T00:57:56.226Z,99
2017-01-08T00:58:36.890Z,99
2017-01-08T00:59:18.529Z,99
2017-01-08T00:59:59.085Z,99
2017-01-08T01:00:39.766Z,98.9
2017-01-08T01:01:20.416Z,99.09
2017-01-08T01:02:01.092Z,99
2017-01-08T01:02:41.711Z,99.09
2017-01-08T01:03:22.382Z,99
2017-01-08T01:04:03.042Z,99
2017-01-08T01:04:43.688Z,99.19
2017-01-08T01:05:24.328Z,98.9
2017-01-08T01:06:04.907Z,98.81
2017-01-08T01:06:45.508Z,98.81
2017-01-08T01:07:26.082Z,99
2017-01-08T01:08:06.719Z,98.81
2017-01-08T01:08:47.364Z,99.19
2017-01-08T01:09:28.023Z,99.09
2017-01-08T01:10:08.602Z,99
2017-01-08T01:10:49.248Z,99
2017-01-08T01:11:29.873Z,99
2017-01-08T01:12:10.454Z,99
2017-01-08T01:12:51.100Z,99
2017-01-08T01:13:31.731Z,99
2017-01-08T01:14:12.305Z,99
2017-01-08T01:14:52.956Z,98.71
2017-01-08T01:15:33.553Z,99
2017-01-08T01:16:14.224Z,98.62
2017-01-08T01:16:54.855Z,99.28
2017-01-08T01:17:35.411Z,98.81
2017-01-08T01:18:16.002Z,98.62
2017-01-08T01:18:56.774Z,98.62
2017-01-08T01:19:37.327Z,98.71
2017-01-08T01:20:17.977Z,98.81
2017-01-08T01:20:58.569Z,98.81
2017-01-08T01:21:39.326Z,98.81
2017-01-08T01:22:19.906Z,99.19
2017-01-08T01:23:00.492Z,98.81
2017-01-08T01:23:41.184Z,98.71
2017-01-08T01:24:22.800Z,98.81
2017-01-08T01:25:03.364Z,99.19
2017-01-08T01:25:44.009Z,98.81
2017-01-08T01:26:24.655Z,98.81
2017-01-08T01:27:05.222Z,98.81
2017-01-08T01:27:45.873Z,99.19
2017-01-08T01:28:26.512Z,98.81
2017-01-08T01:29:07.097Z,98.9
2017-01-08T01:29:47.739Z,98.81
2017-01-08T01:30:28.359Z,98.81
2017-01-08T01:31:09.931Z,98.81
2017-01-08T01:31:50.592Z,99.19
2017-01-08T01:33:48.731Z,98.9
2017-01-08T01:34:29.331Z,98.9
2017-01-08T01:35:09.969Z,98.9
2017-01-08T01:35:50.579Z,99
2017-01-08T01:36:32.198Z,99
2017-01-08T01:37:12.761Z,99
2017-01-08T01:37:53.413Z,99
2017-01-08T01:38:34.009Z,99
2017-01-08T01:39:14.614Z,99.19
2017-01-08T01:39:55.177Z,99
2017-01-08T01:40:35.867Z,99.09
2017-01-08T01:41:16.489Z,99
2017-01-08T01:41:57.142Z,99
2017-01-08T01:42:37.809Z,99.09
2017-01-08T01:43:18.433Z,99.19
2017-01-08T01:43:59.077Z,99.19
2017-01-08T01:44:39.741Z,99
2017-01-08T01:45:20.389Z,99.09
2017-01-08T01:46:00.982Z,99.38
2017-01-08T01:46:41.583Z,99
2017-01-08T01:47:22.137Z,99.28
2017-01-08T01:48:02.823Z,99.19
2017-01-08T01:48:43.497Z,99.19
2017-01-08T01:49:24.093Z,99.38
2017-01-08T01:50:04.734Z,99.28
2017-01-08T01:50:45.304Z,98.9
2017-01-08T01:51:26.882Z,98.9
2017-01-08T01:52:07.532Z,99
2017-01-08T01:52:48.199Z,98.9
2017-01-08T01:53:28.841Z,98.9
2017-01-08T01:54:09.485Z,98.9
2017-01-08T01:54:50.163Z,99.09
2017-01-08T01:55:30.743Z,98.9
2017-01-08T01:56:12.357Z,99.09
2017-01-08T01:56:52.919Z,99.09
2017-01-08T01:57:33.578Z,99.09
2017-01-08T01:58:14.164Z,99.09
2017-01-08T01:58:55.793Z,99.09
2017-01-08T01:59:36.350Z,99.09
2017-01-08T02:00:16.997Z,99.09
2017-01-08T02:00:58.573Z,99.19
2017-01-08T02:01:39.683Z,99.09
2017-01-08T02:02:20.346Z,98.81
2017-01-08T02:03:00.993Z,99.47
2017-01-08T02:03:41.635Z,99.47
2017-01-08T02:04:22.296Z,99.85
2017-01-08T02:05:02.958Z,99.47
2017-01-08T02:05:43.702Z,99.85
2017-01-08T02:06:24.374Z,98.9
2017-01-08T02:07:05.042Z,99.66
2017-01-08T02:07:45.776Z,99.47
2017-01-08T02:08:26.427Z,99.57
2017-01-08T02:09:07.059Z,99.66
2017-01-08T02:09:47.745Z,99.66
2017-01-08T02:10:28.375Z,99.66
2017-01-08T02:11:09.041Z,99.66
2017-01-08T02:11:50.572Z,99.66
2017-01-08T02:12:31.163Z,99.47
2017-01-08T02:13:11.807Z,99.76
2017-01-08T02:13:52.470Z,99.66
2017-01-08T02:14:33.123Z,99.76
2017-01-08T02:15:13.798Z,99.47
2017-01-08T02:15:55.289Z,99.85
2017-01-08T02:16:35.846Z,99.47
2017-01-08T02:17:16.553Z,99.66
2017-01-08T02:17:57.198Z,99.85
2017-01-08T02:18:37.805Z,99.85
2017-01-08T02:19:18.355Z,99.57
2017-01-08T02:19:59.051Z,99.47
2017-01-08T02:20:40.919Z,99.57
2017-01-08T02:21:21.549Z,99.57
2017-01-08T02:22:03.238Z,99.57
2017-01-08T02:22:43.885Z,99.57
2017-01-08T02:23:24.546Z,99.47
2017-01-08T02:24:05.191Z,99.57
2017-01-08T02:24:45.953Z,99.57
2017-01-08T02:25:26.590Z,99.66
2017-01-08T02:26:07.192Z,99.66
2017-01-08T02:26:48.898Z,99.38
2017-01-08T02:27:29.486Z,99.38
2017-01-08T02:28:10.140Z,99.38
2017-01-08T02:28:50.725Z,99.38
2017-01-08T02:29:31.323Z,99.57
2017-01-08T02:30:11.893Z,99.47
2017-01-08T02:30:52.546Z,99.28
2017-01-08T02:31:33.229Z,99.66
2017-01-08T02:32:13.831Z,99.66
2017-01-08T02:32:54.466Z,99.66
2017-01-08T02:33:35.055Z,99.47
2017-01-08T02:34:15.633Z,99.47
2017-01-08T02:34:57.260Z,99.47
2017-01-08T02:35:37.957Z,99.66
2017-01-08T02:36:18.600Z,99.66
2017-01-08T02:36:59.219Z,99.38
2017-01-08T02:37:39.768Z,99.66
2017-01-08T02:38:20.466Z,99.38
2017-01-08T02:39:02.101Z,99.38
2017-01-08T02:39:42.648Z,99.66
2017-01-08T02:40:23.323Z,99.38
2017-01-08T02:41:03.960Z,99.47
2017-01-08T02:41:44.507Z,99.57
2017-01-08T02:42:25.178Z,99.28
2017-01-08T02:43:05.856Z,99.57
2017-01-08T02:43:46.474Z,99.57
2017-01-08T02:44:27.138Z,99.57
2017-01-08T02:45:08.420Z,99.09
2017-01-08T02:45:49.055Z,99.57
2017-01-08T02:46:29.729Z,99.57
2017-01-08T02:47:10.347Z,99.57
2017-01-08T02:47:51.019Z,99.19
2017-01-08T02:48:31.671Z,99.57
2017-01-08T02:49:12.324Z,99.57
2017-01-08T02:49:52.974Z,99.19
2017-01-08T02:50:33.614Z,99.57
2017-01-08T02:51:14.384Z,99.76
2017-01-08T02:51:54.921Z,99.76
2017-01-08T02:52:35.585Z,99.76
2017-01-08T02:53:17.080Z,99.76
2017-01-08T02:53:57.736Z,99.19
2017-01-08T02:54:38.383Z,99.19
2017-01-08T02:55:19.006Z,99.76
2017-01-08T02:55:59.666Z,99.85
2017-01-08T02:56:40.299Z,99.28
2017-01-08T02:57:20.971Z,99.76
2017-01-08T02:58:01.630Z,99.66
2017-01-08T02:58:42.277Z,99.85
2017-01-08T02:59:22.932Z,99.76
2017-01-08T03:00:03.586Z,99.85
2017-01-08T03:00:44.236Z,99.66
2017-01-08T03:01:24.883Z,99.85
2017-01-08T03:02:05.516Z,99.66
2017-01-08T03:02:46.199Z,99.95
2017-01-08T03:03:27.345Z,99.95
2017-01-08T03:04:08.673Z,99.66
2017-01-08T03:04:49.279Z,99.66
2017-01-08T03:05:30.937Z,99.95
2017-01-08T03:06:11.512Z,99.85
2017-01-08T03:06:52.178Z,99.76
2017-01-08T03:07:33.779Z,99.66
2017-01-08T03:08:14.413Z,99.47
2017-01-08T03:08:54.969Z,99.76
2017-01-08T03:09:35.605Z,99.66
2017-01-08T03:10:16.286Z,99.76
2017-01-08T03:10:56.840Z,99.66
2017-01-08T03:11:37.444Z,99.66
2017-01-08T03:12:18.806Z,99.85
2017-01-08T03:12:59.393Z,99.85
2017-01-08T03:13:40.030Z,99.66
2017-01-08T03:14:20.663Z,99.85
2017-01-08T03:15:01.233Z,99.95
2017-01-08T03:15:42.901Z,99.85
2017-01-08T03:16:23.547Z,99.66
2017-01-08T03:17:04.215Z,99.95
2017-01-08T03:17:44.878Z,99.76
2017-01-08T03:18:25.487Z,99.95
2017-01-08T03:19:06.154Z,99.85
2017-01-08T03:19:46.792Z,99.95
2017-01-08T03:20:27.477Z,99.95
2017-01-08T03:21:09.165Z,99.76
2017-01-08T03:21:49.794Z,99.95
2017-01-08T03:22:30.445Z,99.85
2017-01-08T03:23:11.117Z,99.95
2017-01-08T03:23:51.800Z,99.85
2017-01-08T03:24:32.421Z,99.85
2017-01-08T03:25:13.583Z,99.57
2017-01-08T03:25:54.207Z,99.47
2017-01-08T03:26:34.871Z,99.47
2017-01-08T03:27:15.543Z,99.47
2017-01-08T03:27:56.158Z,99.57
2017-01-08T03:28:36.817Z,99.47
2017-01-08T03:29:17.507Z,99.57
2017-01-08T03:29:58.137Z,99.47
2017-01-08T03:30:38.771Z,99.66
2017-01-08T03:31:19.348Z,99.47
2017-01-08T03:31:59.980Z,99.57
2017-01-08T03:32:40.637Z,99.57
2017-01-08T03:33:21.318Z,99.76
2017-01-08T03:34:01.932Z,99.66
2017-01-08T03:34:42.533Z,99.76
2017-01-08T03:35:23.228Z,99.57
2017-01-08T03:36:03.833Z,99.66
2017-01-08T03:36:44.468Z,99.76
2017-01-08T03:37:25.121Z,99.76
2017-01-08T03:38:06.799Z,99.66
2017-01-08T03:38:47.509Z,99.38
2017-01-08T03:39:28.118Z,99.66
2017-01-08T03:40:08.737Z,99.57
2017-01-08T03:40:49.347Z,99.57
2017-01-08T03:41:30.963Z,99.76
2017-01-08T03:42:11.524Z,99.57
2017-01-08T03:42:52.188Z,99.66
2017-01-08T03:43:32.776Z,99.66
2017-01-08T03:44:13.466Z,99.57
2017-01-08T03:44:54.015Z,99.28
2017-01-08T03:45:34.714Z,99.66
2017-01-08T03:46:15.355Z,99.76
2017-01-08T03:46:56.021Z,99.57
2017-01-08T03:47:36.656Z,99.19
2017-01-08T03:48:17.307Z,99.66
2017-01-08T03:48:58.002Z,99.76
2017-01-08T03:49:38.624Z,99.76
2017-01-08T03:50:19.273Z,99.76
2017-01-08T03:50:59.973Z,99.57
2017-01-08T03:51:40.544Z,99.76
2017-01-08T03:52:21.097Z,99.85
2017-01-08T03:53:01.798Z,99.28
2017-01-08T03:53:42.349Z,99.99
2017-01-08T03:54:22.949Z,99.99
2017-01-08T03:55:03.519Z,99.76
2017-01-08T03:55:44.154Z,99.99
2017-01-08T03:56:24.825Z,99.99
2017-01-08T03:57:05.384Z,99.99
2017-01-08T03:57:46.030Z,99.99
2017-01-08T03:58:26.679Z,99.99
2017-01-08T03:59:07.240Z,99.99
2017-01-08T03:59:47.902Z,99.28
2017-01-08T04:00:28.535Z,99.99
2017-01-08T04:01:09.088Z,99.99
2017-01-08T04:01:49.746Z,99.99
2017-01-08T04:02:30.395Z,99.99
2017-01-08T04:03:11.056Z,99.99
2017-01-08T04:03:51.677Z,99.99
2017-01-08T04:04:33.336Z,99.99
2017-01-08T04:05:13.994Z,99.99
2017-01-08T04:05:54.622Z,99.99
2017-01-08T04:06:35.205Z,99.99
2017-01-08T04:07:15.870Z,99.99
2017-01-08T04:07:56.483Z,99.99
2017-01-08T04:08:37.069Z,99.99
2017-01-08T04:09:18.560Z,99.99
2017-01-08T04:09:59.186Z,99.99
2017-01-08T04:10:39.760Z,99.99
2017-01-08T04:11:20.394Z,99.99
2017-01-08T04:12:01.012Z,99.99
2017-01-08T04:12:41.671Z,99.99
2017-01-08T04:13:22.359Z,99.99
2017-01-08T04:14:02.966Z,99.99
2017-01-08T04:14:43.555Z,99.99
2017-01-08T04:15:24.177Z,99.99
2017-01-08T04:16:04.829Z,99.99
2017-01-08T04:16:45.485Z,99.99
2017-01-08T04:17:26.135Z,99.99
2017-01-08T04:18:06.795Z,99.99
2017-01-08T04:18:47.444Z,99.95
2017-01-08T04:19:28.090Z,99.99
2017-01-08T04:20:08.745Z,99.99
2017-01-08T04:20:49.307Z,99.99
2017-01-08T04:21:29.862Z,99.95
2017-01-08T04:22:10.570Z,99.99
2017-01-08T04:22:51.151Z,99.99
2017-01-08T04:23:31.818Z,99.95
2017-01-08T04:24:12.451Z,99.99
2017-01-08T04:24:53.022Z,99.99
2017-01-08T04:25:33.734Z,99.99
2017-01-08T04:26:14.416Z,99.95
2017-01-08T04:26:55.018Z,99.99
2017-01-08T04:27:35.631Z,99.99
2017-01-08T04:28:16.243Z,99.99
2017-01-08T04:28:56.924Z,99.99
2017-01-08T04:29:37.486Z,99.99
2017-01-08T04:30:19.061Z,99.95
2017-01-08T04:30:59.664Z,99.99
2017-01-08T04:31:40.319Z,99.99
2017-01-08T04:32:20.974Z,99.99
2017-01-08T04:33:01.623Z,99.99
2017-01-08T04:33:42.279Z,99.99
2017-01-08T04:34:22.923Z,99.99
2017-01-08T04:35:03.583Z,99.99
2017-01-08T04:35:44.956Z,99.99
2017-01-08T04:36:25.521Z,99.99
2017-01-08T04:37:06.109Z,99.99
2017-01-08T04:37:46.744Z,99.99
2017-01-08T04:38:27.328Z,99.85
2017-01-08T04:39:07.964Z,99.99
2017-01-08T04:39:48.597Z,99.99
2017-01-08T04:40:29.154Z,99.99
2017-01-08T04:41:09.825Z,99.99
2017-01-08T04:41:50.475Z,99.99
2017-01-08T04:42:31.239Z,99.85
2017-01-08T04:43:11.797Z,99.85
2017-01-08T04:43:52.955Z,99.99
2017-01-08T04:44:33.606Z,99.99
2017-01-08T04:45:14.280Z,99.85
2017-01-08T04:45:54.913Z,99.99
2017-01-08T04:46:36.589Z,99.85
2017-01-08T04:47:17.399Z,99.85
2017-01-08T04:47:57.981Z,99.85
2017-01-08T04:48:38.624Z,99.85
2017-01-08T04:49:19.288Z,99.99
2017-01-08T04:49:59.945Z,99.85
2017-01-08T04:50:40.598Z,99.76
2017-01-08T04:51:21.187Z,99.76
2017-01-08T04:52:01.784Z,99.76
2017-01-08T04:52:42.335Z,99.76
2017-01-08T04:53:23.008Z,99.76
2017-01-08T04:54:03.725Z,99.95
2017-01-08T04:54:44.398Z,99.85
2017-01-08T04:55:24.958Z,99.76
2017-01-08T04:56:05.626Z,99.95
2017-01-08T04:56:46.277Z,99.85
2017-01-08T04:57:26.905Z,99.85
2017-01-08T04:58:07.635Z,99.95
2017-01-08T04:58:48.235Z,99.95
2017-01-08T04:59:28.892Z,99.76
2017-01-08T05:00:09.542Z,99.85
2017-01-08T05:00:50.194Z,99.99
2017-01-08T05:01:30.780Z,99.95
2017-01-08T05:02:11.386Z,99.95
2017-01-08T05:02:51.948Z,99.95
2017-01-08T05:03:32.611Z,99.95
2017-01-08T05:04:13.197Z,99.85
2017-01-08T05:04:54.702Z,99.95
2017-01-08T05:05:35.262Z,99.95
2017-01-08T05:06:15.918Z,99.95
2017-01-08T05:06:57.288Z,99.95
2017-01-08T05:07:37.888Z,99.95
2017-01-08T05:08:18.520Z,99.95
2017-01-08T05:08:59.242Z,99.99
2017-01-08T05:09:39.892Z,99.95
2017-01-08T05:10:20.563Z,99.99
2017-01-08T05:11:01.211Z,99.99
2017-01-08T05:11:41.758Z,99.95
2017-01-08T05:12:22.411Z,99.95
2017-01-08T05:13:03.061Z,99.99
2017-01-08T05:13:43.712Z,99.95
2017-01-08T05:14:24.420Z,99.99
2017-01-08T05:15:05.024Z,99.95
2017-01-08T05:15:45.676Z,99.99
2017-01-08T05:16:26.338Z,99.99
2017-01-08T05:17:06.989Z,99.99
2017-01-08T05:17:47.655Z,99.99
2017-01-08T05:18:28.296Z,99.95
2017-01-08T05:19:08.960Z,99.95
2017-01-08T05:19:49.527Z,99.99
2017-01-08T05:20:30.152Z,99.99
2017-01-08T05:21:10.818Z,99.99
2017-01-08T05:21:51.444Z,99.99
2017-01-08T05:22:33.031Z,99.99
2017-01-08T05:23:13.702Z,99.99
2017-01-08T05:23:54.361Z,99.99
2017-01-08T05:24:35.024Z,99.99
2017-01-08T05:25:15.665Z,99.99
2017-01-08T05:25:56.312Z,99.95
2017-01-08T05:26:36.941Z,99.99
2017-01-08T05:27:18.523Z,99.95
2017-01-08T05:28:00.131Z,99.99
2017-01-08T05:28:40.765Z,99.99
2017-01-08T05:29:21.408Z,99.99
2017-01-08T05:30:02.043Z,99.99
2017-01-08T05:30:42.704Z,99.99
2017-01-08T05:31:23.314Z,99.99
2017-01-08T05:32:03.907Z,99.99
2017-01-08T05:32:44.463Z,99.99
2017-01-08T05:33:26.067Z,99.99
2017-01-08T05:34:06.728Z,99.99
2017-01-08T05:34:49.376Z,99.99
2017-01-08T05:35:29.940Z,99.99
2017-01-08T05:36:10.612Z,99.99
2017-01-08T05:36:51.249Z,99.99
2017-01-08T05:37:31.914Z,99.95
2017-01-08T05:38:12.553Z,99.99
2017-01-08T05:38:53.197Z,99.99
2017-01-08T05:39:33.867Z,99.99
2017-01-08T05:40:15.587Z,99.99
2017-01-08T05:40:56.189Z,99.99
2017-01-08T05:41:36.902Z,99.99
2017-01-08T05:42:17.495Z,99.99
2017-01-08T05:42:59.076Z,99.99
2017-01-08T05:43:39.811Z,99.99
2017-01-08T05:44:20.478Z,99.99
2017-01-08T05:45:01.132Z,99.99
2017-01-08T05:45:43.563Z,99.99
2017-01-08T05:46:24.226Z,99.99
2017-01-08T05:47:04.815Z,99.99
2017-01-08T05:47:45.379Z,99.99
2017-01-08T05:48:26.029Z,99.99
2017-01-08T05:49:06.626Z,99.99
2017-01-08T05:49:47.227Z,99.99
2017-01-08T05:50:27.783Z,99.99
2017-01-08T05:51:08.437Z,99.99
2017-01-08T05:51:49.090Z,99.99
2017-01-08T05:52:29.746Z,99.99
2017-01-08T05:53:11.321Z,99.99
2017-01-08T05:53:52.901Z,99.99
2017-01-08T05:54:33.611Z,99.99
2017-01-08T05:55:14.198Z,99.99
2017-01-08T05:55:54.865Z,99.95
2017-01-08T05:56:35.601Z,99.99
2017-01-08T05:57:16.157Z,99.99
2017-01-08T05:57:57.728Z,99.99
2017-01-08T05:58:38.382Z,99.99
2017-01-08T05:59:18.933Z,99.99
2017-01-08T05:59:59.579Z,99.99
2017-01-08T06:00:40.340Z,99.99
2017-01-08T06:01:20.901Z,99.99
2017-01-08T06:02:01.567Z,99.99
2017-01-08T06:02:42.141Z,99.99
2017-01-08T06:03:22.851Z,99.99
2017-01-08T06:04:03.424Z,99.99
2017-01-08T06:04:44.057Z,99.99
2017-01-08T06:05:24.677Z,99.99
2017-01-08T06:06:05.258Z,99.99
2017-01-08T06:06:45.829Z,99.99
2017-01-08T06:07:26.485Z,99.99
2017-01-08T06:08:07.070Z,99.99
2017-01-08T06:08:47.771Z,99.99
2017-01-08T06:09:28.316Z,99.99
2017-01-08T06:10:08.989Z,99.99
2017-01-08T06:10:49.581Z,99.99
2017-01-08T06:11:30.173Z,99.99
2017-01-08T06:12:10.735Z,99.99
2017-01-08T06:12:51.384Z,99.99
2017-01-08T06:13:31.986Z,99.99
2017-01-08T06:14:12.566Z,99.99
2017-01-08T06:14:53.117Z,99.99
2017-01-08T06:15:34.699Z,99.99
2017-01-08T06:16:16.288Z,99.99
2017-01-08T06:16:56.853Z,99.99
2017-01-08T06:17:37.522Z,99.99
2017-01-08T06:18:18.140Z,99.99
2017-01-08T06:18:59.281Z,99.99
2017-01-08T06:19:40.901Z,99.99
2017-01-08T06:20:21.629Z,99.99
2017-01-08T06:21:02.166Z,99.99
2017-01-08T06:21:42.855Z,99.99
2017-01-08T06:22:23.600Z,99.99
2017-01-08T06:23:04.267Z,99.99
2017-01-08T06:23:44.908Z,99.99
2017-01-08T06:24:25.549Z,99.99
2017-01-08T06:25:06.212Z,99.99
2017-01-08T06:25:46.863Z,99.99
2017-01-08T06:26:27.463Z,99.99
2017-01-08T06:27:08.083Z,99.99
2017-01-08T06:27:48.635Z,99.99
2017-01-08T06:28:29.282Z,99.99
2017-01-08T06:29:09.869Z,99.99
2017-01-08T06:29:50.459Z,99.99
2017-01-08T06:30:31.033Z,99.99
2017-01-08T06:31:11.696Z,99.99
2017-01-08T06:31:52.279Z,99.99
2017-01-08T06:32:32.973Z,99.99
2017-01-08T06:33:13.515Z,99.99
2017-01-08T06:33:54.086Z,99.99
2017-01-08T06:34:34.685Z,99.99
2017-01-08T06:35:15.276Z,99.99
2017-01-08T06:35:55.837Z,99.99
2017-01-08T06:36:36.502Z,99.99
2017-01-08T06:37:17.100Z,99.99
2017-01-08T06:37:57.670Z,99.99
2017-01-08T06:38:38.234Z,99.99
2017-01-08T06:39:19.935Z,99.99
2017-01-08T06:40:00.523Z,99.99
2017-01-08T06:40:41.114Z,99.99
2017-01-08T06:41:21.675Z,99.99
2017-01-08T06:42:02.342Z,99.99
2017-01-08T06:42:42.988Z,99.99
2017-01-08T06:43:23.543Z,99.99
2017-01-08T06:44:04.194Z,99.99
2017-01-08T06:44:44.838Z,99.99
2017-01-08T06:45:25.560Z,99.99
2017-01-08T06:46:06.132Z,99.99
2017-01-08T06:46:46.801Z,99.99
2017-01-08T06:47:28.476Z,99.99
2017-01-08T06:48:09.129Z,99.99
2017-01-08T06:48:50.030Z,99.99
2017-01-08T06:49:30.658Z,99.99
2017-01-08T06:50:11.297Z,99.99
2017-01-08T06:50:51.974Z,99.99
2017-01-08T06:51:33.462Z,99.99
2017-01-08T06:52:14.070Z,99.99
2017-01-08T06:52:54.649Z,99.99
2017-01-08T06:53:36.307Z,99.99
2017-01-08T06:54:16.952Z,99.99
2017-01-08T06:54:57.532Z,99.99
2017-01-08T06:55:38.177Z,99.99
2017-01-08T06:56:18.759Z,99.99
2017-01-08T06:56:59.358Z,99.99
2017-01-08T06:57:39.932Z,99.99
2017-01-08T06:58:20.575Z,99.99
2017-01-08T06:59:01.162Z,99.99
2017-01-08T06:59:41.867Z,99.99
2017-01-08T07:00:22.447Z,99.99
2017-01-08T07:01:03.067Z,99.99
2017-01-08T07:01:44.574Z,99.99
2017-01-08T07:02:25.210Z,99.99
2017-01-08T07:03:05.872Z,99.99
2017-01-08T07:03:46.514Z,99.99
2017-01-08T07:04:27.191Z,99.99
2017-01-08T07:05:07.830Z,99.99
2017-01-08T07:05:48.463Z,99.99
2017-01-08T07:06:29.135Z,99.99
2017-01-08T07:07:09.796Z,99.99
2017-01-08T07:07:50.428Z,99.99
2017-01-08T07:08:31.095Z,99.99
2017-01-08T07:09:11.724Z,99.99
2017-01-08T07:09:53.071Z,99.99
2017-01-08T07:10:33.634Z,99.99
2017-01-08T07:11:14.332Z,99.99
2017-01-08T07:11:54.939Z,99.99
2017-01-08T07:12:35.505Z,99.99
2017-01-08T07:13:16.214Z,99.99
2017-01-08T07:13:57.824Z,99.99
2017-01-08T07:14:38.387Z,99.99
2017-01-08T07:15:19.589Z,99.99
2017-01-08T07:16:00.257Z,99.99
2017-01-08T07:16:40.960Z,99.99
2017-01-08T07:17:21.538Z,99.99
2017-01-08T07:18:02.184Z,99.99
2017-01-08T07:18:42.872Z,99.99
2017-01-08T07:19:23.415Z,99.99
2017-01-08T07:20:04.039Z,99.99
2017-01-08T07:20:46.669Z,99.99
2017-01-08T07:21:27.253Z,99.99
2017-01-08T07:22:07.839Z,99.99
2017-01-08T07:22:48.485Z,99.99
2017-01-08T07:23:29.074Z,99.99
2017-01-08T07:24:09.683Z,99.99
2017-01-08T07:24:50.246Z,99.99
2017-01-08T07:25:30.879Z,99.99
2017-01-08T07:26:12.528Z,99.99
2017-01-08T07:26:53.139Z,99.99
2017-01-08T07:27:33.754Z,99.99
2017-01-08T07:28:14.427Z,99.99
2017-01-08T07:28:55.065Z,99.99
2017-01-08T07:29:35.725Z,99.99
2017-01-08T07:30:16.364Z,99.99
2017-01-08T07:30:57.028Z,99.99
2017-01-08T07:31:37.571Z,99.99
2017-01-08T07:32:18.167Z,99.99
2017-01-08T07:32:58.769Z,99.99
2017-01-08T07:33:39.360Z,99.99
2017-01-08T07:34:19.969Z,99.99
2017-01-08T07:35:00.581Z,99.99
2017-01-08T07:35:41.173Z,99.99
2017-01-08T07:36:21.734Z,99.99
2017-01-08T07:37:02.375Z,99.99
2017-01-08T07:37:42.980Z,99.99
2017-01-08T07:38:23.674Z,99.99
2017-01-08T07:39:04.270Z,99.99
2017-01-08T07:39:44.895Z,99.99
2017-01-08T07:40:25.489Z,99.9
2017-01-08T07:41:06.089Z,99.99
2017-01-08T07:41:46.661Z,99.99
2017-01-08T07:42:27.301Z,99.99
2017-01-08T07:43:07.903Z,99.99
2017-01-08T07:43:50.537Z,99.99
2017-01-08T07:44:31.094Z,99.99
2017-01-08T07:45:12.693Z,99.99
2017-01-08T07:45:53.296Z,99.99
2017-01-08T07:46:33.967Z,99.99
2017-01-08T07:47:14.628Z,99.99
2017-01-08T07:47:55.286Z,99.99
2017-01-08T07:48:35.942Z,99.99
2017-01-08T07:49:16.585Z,99.99
2017-01-08T07:49:58.263Z,99.99
2017-01-08T07:50:38.909Z,99.99
2017-01-08T07:51:19.467Z,99.99
2017-01-08T07:52:00.797Z,99.99
2017-01-08T07:52:41.438Z,99.99
2017-01-08T07:53:22.863Z,99.99
2017-01-08T07:54:03.424Z,99.99
2017-01-08T07:54:44.062Z,99.99
2017-01-08T07:55:24.657Z,99.99
2017-01-08T07:56:05.257Z,99.99
2017-01-08T07:56:45.835Z,99.99
2017-01-08T07:57:26.509Z,99.99
2017-01-08T07:58:07.196Z,99.99
2017-01-08T07:58:48.092Z,99.99
2017-01-08T07:59:28.636Z,99.99
2017-01-08T08:00:09.297Z,99.99
2017-01-08T08:00:49.900Z,99.99
2017-01-08T08:01:30.641Z,99.99
2017-01-08T08:02:11.183Z,99.99
2017-01-08T08:02:51.755Z,99.99
2017-01-08T08:03:32.365Z,99.99
2017-01-08T08:04:13.983Z,99.99
2017-01-08T08:04:54.601Z,99.99
2017-01-08T08:05:35.156Z,99.99
2017-01-08T08:06:16.832Z,99.99
2017-01-08T08:06:57.483Z,99.99
2017-01-08T08:07:38.118Z,99.9
2017-01-08T08:08:18.773Z,99.99
2017-01-08T08:08:59.411Z,99.99
2017-01-08T08:09:40.081Z,99.99
2017-01-08T08:10:20.733Z,99.99
2017-01-08T08:11:02.019Z,99.99
2017-01-08T08:11:42.591Z,99.99
2017-01-08T08:12:23.235Z,99.99
2017-01-08T08:13:03.895Z,99.99
2017-01-08T08:13:44.542Z,99.99
2017-01-08T08:14:25.203Z,99.99
2017-01-08T08:15:05.862Z,99.99
2017-01-08T08:15:46.515Z,99.99
2017-01-08T08:16:27.123Z,99.99
2017-01-08T08:17:07.667Z,99.99
2017-01-08T08:17:48.342Z,99.99
2017-01-08T08:18:28.971Z,99.99
2017-01-08T08:19:10.546Z,99.99
2017-01-08T08:19:51.198Z,99.99
2017-01-08T08:20:31.845Z,99.99
2017-01-08T08:21:12.532Z,99.99
2017-01-08T08:21:53.156Z,99.99
2017-01-08T08:22:33.792Z,99.99
2017-01-08T08:23:15.465Z,99.99
2017-01-08T08:23:56.124Z,99.99
2017-01-08T08:24:36.769Z,99.99
2017-01-08T08:25:17.511Z,99.99
2017-01-08T08:25:58.071Z,99.99
2017-01-08T08:26:38.622Z,99.99
2017-01-08T08:27:19.302Z,99.99
2017-01-08T08:27:59.978Z,99.99
2017-01-08T08:28:40.662Z,99.99
2017-01-08T08:29:21.239Z,99.99
2017-01-08T08:30:01.873Z,99.99
2017-01-08T08:30:43.484Z,99.99
2017-01-08T08:31:24.096Z,99.99
2017-01-08T08:32:04.666Z,99.99
2017-01-08T08:32:45.316Z,99.99
2017-01-08T08:33:25.898Z,99.99
2017-01-08T08:34:06.498Z,99.99
2017-01-08T08:34:47.071Z,99.99
2017-01-08T08:35:27.733Z,99.99
2017-01-08T08:36:08.793Z,99.99
2017-01-08T08:36:49.424Z,99.99
2017-01-08T08:37:29.989Z,99.99
2017-01-08T08:38:10.632Z,99.99
2017-01-08T08:38:51.326Z,99.99
2017-01-08T08:39:31.943Z,99.99
2017-01-08T08:40:12.506Z,99.99
2017-01-08T08:40:53.147Z,99.99
2017-01-08T08:41:33.841Z,99.99
2017-01-08T08:42:14.388Z,99.99
2017-01-08T08:42:55.053Z,99.99
2017-01-08T08:43:35.693Z,99.99
2017-01-08T08:44:16.258Z,99.99
2017-01-08T08:44:56.867Z,99.99
2017-01-08T08:45:37.531Z,99.99
2017-01-08T08:46:18.195Z,99.99
2017-01-08T08:46:58.816Z,99.99
2017-01-08T08:47:39.449Z,99.99
2017-01-08T08:48:20.014Z,99.99
2017-01-08T08:52:11.304Z,99.99